Time;durP1;ratioP1;P1;durP2;ratioP2;P2;SDS_P1;SDS_P2;PMS_P1;PMS_P2;Temp;Humidity;BMP_temperature;BMP_pressure;BME280_temperature;BME280_humidity;BME280_pressure;Samples;Min_cycle;Max_cycle;Signal;HPM_P1;HPM_P2
2023/01/08 00:01:05;;;;;;;0.00;0.00;;;;;;;;;;5035920;28;20258;-82
2023/01/08 00:03:33;;;;;;;0.00;0.00;;;;;;;;;;5036312;28;20697;-81
2023/01/08 00:06:02;;;;;;;0.00;0.00;;;;;;;;;;5036078;28;20200;-82
2023/01/08 00:08:31;;;;;;;0.00;0.00;;;;;;;;;;5035642;28;20235;-81
2023/01/08 00:11:00;;;;;;;0.00;0.00;;;;;;;;;;5036713;28;20233;-83
2023/01/08 00:13:30;;;;;;;0.00;0.00;;;;;;;;;;5032042;28;20208;-82
2023/01/08 00:16:02;;;;;;;0.00;0.00;;;;;;;;;;5017241;28;20254;-82
2023/01/08 00:18:31;;;;;;;0.00;0.00;;;;;;;;;;5016744;28;20240;-81
2023/01/08 00:20:59;;;;;;;0.00;0.00;;;;;;;;;;5016197;28;20251;-82
2023/01/08 00:23:28;;;;;;;0.00;0.00;;;;;;;;;;5035090;28;20219;-82
2023/01/08 00:25:57;;;;;;;0.00;0.00;;;;;;;;;;5037072;28;20204;-82
2023/01/08 00:28:25;;;;;;;0.00;0.00;;;;;;;;;;5036648;28;20224;-82
2023/01/08 00:30:55;;;;;;;0.00;0.00;;;;;;;;;;5036715;28;20215;-81
2023/01/08 00:33:24;;;;;;;0.00;0.00;;;;;;;;;;5016605;28;20654;-82
2023/01/08 00:35:52;;;;;;;0.00;0.00;;;;;;;;;;5016671;28;20208;-83
2023/01/08 00:38:20;;;;;;;0.00;0.00;;;;;;;;;;5035787;28;20277;-82
2023/01/08 00:40:49;;;;;;;0.00;0.00;;;;;;;;;;5037555;28;20211;-82
2023/01/08 00:43:17;;;;;;;0.00;0.00;;;;;;;;;;5037745;28;20250;-83
2023/01/08 00:45:46;;;;;;;0.00;0.00;;;;;;;;;;5038401;28;20234;-82
2023/01/08 00:48:16;;;;;;;0.00;0.00;;;;;;;;;;5037692;28;20683;-82
2023/01/08 00:50:44;;;;;;;0.00;0.00;;;;;;;;;;5035906;28;20204;-82
2023/01/08 00:53:13;;;;;;;0.00;0.00;;;;;;;;;;5035876;28;20204;-83
2023/01/08 00:55:41;;;;;;;0.00;0.00;;;;;;;;;;5050887;28;20245;-82
2023/01/08 00:58:10;;;;;;;0.00;0.00;;;;;;;;;;5028820;28;20224;-83
2023/01/08 01:00:39;;;;;;;0.00;0.00;;;;;;;;;;5035660;28;20207;-82
2023/01/08 01:03:07;;;;;;;0.00;0.00;;;;;;;;;;5035454;28;20277;-82
2023/01/08 01:05:37;;;;;;;0.00;0.00;;;;;;;;;;5034865;28;20203;-83
2023/01/08 01:08:05;;;;;;;0.00;0.00;;;;;;;;;;5039020;28;20224;-82
2023/01/08 01:10:34;;;;;;;0.00;0.00;;;;;;;;;;5026314;28;20224;-82
2023/01/08 01:13:02;;;;;;;0.00;0.00;;;;;;;;;;5029483;28;20232;-82
2023/01/08 01:15:31;;;;;;;0.00;0.00;;;;;;;;;;5041394;28;20275;-82
2023/01/08 01:17:59;;;;;;;0.00;0.00;;;;;;;;;;5042027;28;20220;-83
2023/01/08 01:20:28;;;;;;;0.00;0.00;;;;;;;;;;5042174;28;20752;-83
2023/01/08 01:22:58;;;;;;;0.00;0.00;;;;;;;;;;5040729;28;20200;-83
2023/01/08 01:25:27;;;;;;;0.00;0.00;;;;;;;;;;5040734;28;20254;-83
2023/01/08 01:27:56;;;;;;;0.00;0.00;;;;;;;;;;5039736;28;20232;-82
2023/01/08 01:30:24;;;;;;;0.00;0.00;;;;;;;;;;5050940;28;20207;-83
2023/01/08 01:32:53;;;;;;;0.00;0.00;;;;;;;;;;5037390;28;20204;-82
2023/01/08 01:35:21;;;;;;;0.00;0.00;;;;;;;;;;5036776;28;20620;-83
2023/01/08 01:37:50;;;;;;;0.00;0.00;;;;;;;;;;5034578;28;20220;-82
2023/01/08 01:40:20;;;;;;;0.00;0.00;;;;;;;;;;5017356;28;20220;-82
2023/01/08 01:42:48;;;;;;;0.00;0.00;;;;;;;;;;5014354;28;20263;-81
2023/01/08 01:45:19;;;;;;;0.00;0.00;;;;;;;;;;5013452;28;20686;-82
2023/01/08 01:47:50;;;;;;;0.00;0.00;;;;;;;;;;5015145;28;20262;-82
2023/01/08 01:50:20;;;;;;;0.00;0.00;;;;;;;;;;5014887;28;20243;-82
2023/01/08 01:52:52;;;;;;;0.00;0.00;;;;;;;;;;5016501;28;20256;-82
2023/01/08 01:55:23;;;;;;;0.00;0.00;;;;;;;;;;5016500;28;20203;-82
2023/01/08 01:57:53;;;;;;;0.00;0.00;;;;;;;;;;5015802;28;20681;-82
2023/01/08 02:00:23;;;;;;;0.00;0.00;;;;;;;;;;5015248;28;20208;-82
2023/01/08 02:02:52;;;;;;;0.00;0.00;;;;;;;;;;5016238;28;20211;-82
2023/01/08 02:05:21;;;;;;;0.00;0.00;;;;;;;;;;5016131;28;20224;-83
2023/01/08 02:07:53;;;;;;;0.00;0.00;;;;;;;;;;5015571;28;20225;-83
2023/01/08 02:10:30;;;;;;;0.00;0.00;;;;;;;;;;5016118;28;20192;-83
2023/01/08 02:13:02;;;;;;;0.00;0.00;;;;;;;;;;5015288;28;20214;-83
2023/01/08 02:15:34;;;;;;;0.00;0.00;;;;;;;;;;5015290;28;20224;-82
2023/01/08 02:18:04;;;;;;;0.00;0.00;;;;;;;;;;5015618;28;20747;-82
2023/01/08 02:20:34;;;;;;;0.00;0.00;;;;;;;;;;5016140;28;20191;-82
2023/01/08 02:23:15;;;;;;;0.00;0.00;;;;;;;;;;5014924;28;20197;-82
2023/01/08 02:26:11;;;;;;;0.00;0.00;;;;;;;;;;5014631;28;20291;-82
2023/01/08 02:28:43;;;;;;;0.00;0.00;;;;;;;;;;4991123;28;20211;-82
2023/01/08 02:31:12;;;;;;;0.00;0.00;;;;;;;;;;5015285;28;20192;-81
2023/01/08 02:33:41;;;;;;;0.00;0.00;;;;;;;;;;5014822;28;20204;-82
2023/01/08 02:36:19;;;;;;;0.00;0.00;;;;;;;;;;5015358;28;20200;-82
2023/01/08 02:38:51;;;;;;;0.00;0.00;;;;;;;;;;5015133;28;20212;-81
2023/01/08 02:41:21;;;;;;;0.00;0.00;;;;;;;;;;5015822;28;20638;-82
2023/01/08 02:43:53;;;;;;;0.00;0.00;;;;;;;;;;5014160;28;20303;-82
2023/01/08 02:46:24;;;;;;;0.00;0.00;;;;;;;;;;5014874;28;20204;-82
2023/01/08 02:48:55;;;;;;;0.00;0.00;;;;;;;;;;5015420;28;20295;-82
2023/01/08 02:51:26;;;;;;;0.00;0.00;;;;;;;;;;5014786;28;20204;-82
2023/01/08 02:53:58;;;;;;;0.00;0.00;;;;;;;;;;5014145;28;20207;-82
2023/01/08 02:56:29;;;;;;;0.00;0.00;;;;;;;;;;5015618;28;20188;-82
2023/01/08 02:59:00;;;;;;;0.00;0.00;;;;;;;;;;5017843;28;20534;-82
2023/01/08 03:01:29;;;;;;;0.00;0.00;;;;;;;;;;5018641;28;20215;-82
2023/01/08 03:04:05;;;;;;;0.00;0.00;;;;;;;;;;5018428;28;20258;-82
2023/01/08 03:06:34;;;;;;;0.00;0.00;;;;;;;;;;5018863;28;20224;-82
2023/01/08 03:09:04;;;;;;;0.00;0.00;;;;;;;;;;5018502;28;20215;-82
2023/01/08 03:11:36;;;;;;;0.00;0.00;;;;;;;;;;5018680;28;20204;-82
2023/01/08 03:14:08;;;;;;;0.00;0.00;;;;;;;;;;5019046;28;20537;-82
2023/01/08 03:16:37;;;;;;;0.00;0.00;;;;;;;;;;5018225;28;20255;-83
2023/01/08 03:19:11;;;;;;;0.00;0.00;;;;;;;;;;5018268;28;20205;-82
2023/01/08 03:21:42;;;;;;;0.00;0.00;;;;;;;;;;5018874;28;20225;-82
2023/01/08 03:24:11;;;;;;;0.00;0.00;;;;;;;;;;5032404;28;20232;-82
2023/01/08 03:26:41;;;;;;;0.00;0.00;;;;;;;;;;5042909;28;20232;-82
2023/01/08 03:29:12;;;;;;;0.00;0.00;;;;;;;;;;5038824;28;20277;-82
2023/01/08 03:31:41;;;;;;;0.00;0.00;;;;;;;;;;5037896;28;20180;-82
2023/01/08 03:34:10;;;;;;;0.00;0.00;;;;;;;;;;5038192;28;20289;-83
2023/01/08 03:36:41;;;;;;;0.00;0.00;;;;;;;;;;5037178;28;20652;-82
2023/01/08 03:39:13;;;;;;;0.00;0.00;;;;;;;;;;5038189;28;20203;-82
2023/01/08 03:41:42;;;;;;;0.00;0.00;;;;;;;;;;5038708;28;20184;-82
2023/01/08 03:44:12;;;;;;;0.00;0.00;;;;;;;;;;5037230;28;20246;-82
2023/01/08 03:46:42;;;;;;;0.00;0.00;;;;;;;;;;5018086;28;20260;-82
2023/01/08 03:49:11;;;;;;;0.00;0.00;;;;;;;;;;5020198;28;20208;-81
2023/01/08 03:51:40;;;;;;;0.00;0.00;;;;;;;;;;5018480;28;20236;-83
2023/01/08 03:54:09;;;;;;;0.00;0.00;;;;;;;;;;5019095;28;20274;-82
2023/01/08 03:56:38;;;;;;;0.00;0.00;;;;;;;;;;5018324;28;20224;-83
2023/01/08 03:59:06;;;;;;;0.00;0.00;;;;;;;;;;5019589;28;20266;-83
2023/01/08 04:01:36;;;;;;;0.00;0.00;;;;;;;;;;5019905;28;20216;-83
2023/01/08 04:04:05;;;;;;;0.00;0.00;;;;;;;;;;5018651;28;20266;-83
2023/01/08 04:06:34;;;;;;;0.00;0.00;;;;;;;;;;5018203;28;20255;-82
2023/01/08 04:09:03;;;;;;;0.00;0.00;;;;;;;;;;5018614;28;20211;-83
2023/01/08 04:11:32;;;;;;;0.00;0.00;;;;;;;;;;5019315;28;20200;-83
2023/01/08 04:14:00;;;;;;;0.00;0.00;;;;;;;;;;5019202;28;20208;-83
2023/01/08 04:16:30;;;;;;;0.00;0.00;;;;;;;;;;5018234;28;20234;-82
2023/01/08 04:19:00;;;;;;;0.00;0.00;;;;;;;;;;5019312;28;20224;-83
2023/01/08 04:21:29;;;;;;;0.00;0.00;;;;;;;;;;5019122;28;20205;-83
2023/01/08 04:23:57;;;;;;;0.00;0.00;;;;;;;;;;5019501;28;20196;-82
2023/01/08 04:26:26;;;;;;;0.00;0.00;;;;;;;;;;5018247;28;20224;-82
2023/01/08 04:28:54;;;;;;;0.00;0.00;;;;;;;;;;5016963;28;20212;-82
2023/01/08 04:31:23;;;;;;;0.00;0.00;;;;;;;;;;5016307;28;20212;-83
2023/01/08 04:33:52;;;;;;;0.00;0.00;;;;;;;;;;5017740;28;20295;-83
2023/01/08 04:36:22;;;;;;;0.00;0.00;;;;;;;;;;5016130;28;20208;-82
2023/01/08 04:38:50;;;;;;;0.00;0.00;;;;;;;;;;5016978;28;20267;-82
2023/01/08 04:41:19;;;;;;;0.00;0.00;;;;;;;;;;5017204;28;20254;-82
2023/01/08 04:43:47;;;;;;;0.00;0.00;;;;;;;;;;5017422;28;20208;-83
2023/01/08 04:46:16;;;;;;;0.00;0.00;;;;;;;;;;5015786;28;20224;-81
2023/01/08 04:48:44;;;;;;;0.00;0.00;;;;;;;;;;5016742;28;20208;-82
2023/01/08 04:51:13;;;;;;;0.00;0.00;;;;;;;;;;5016347;28;20204;-82
2023/01/08 04:53:44;;;;;;;0.00;0.00;;;;;;;;;;5016843;28;20673;-81
2023/01/08 04:56:13;;;;;;;0.00;0.00;;;;;;;;;;5016783;28;20185;-81
2023/01/08 04:58:41;;;;;;;0.00;0.00;;;;;;;;;;5015931;28;20251;-82
2023/01/08 05:01:11;;;;;;;0.00;0.00;;;;;;;;;;5017597;28;20247;-82
2023/01/08 05:03:39;;;;;;;0.00;0.00;;;;;;;;;;5016772;28;20295;-83
2023/01/08 05:06:08;;;;;;;0.00;0.00;;;;;;;;;;5016695;28;20291;-83
2023/01/08 05:08:37;;;;;;;0.00;0.00;;;;;;;;;;5017385;28;20204;-83
2023/01/08 05:11:07;;;;;;;0.00;0.00;;;;;;;;;;5018979;28;20630;-82
2023/01/08 05:13:36;;;;;;;0.00;0.00;;;;;;;;;;5036265;28;20214;-83
2023/01/08 05:16:04;;;;;;;0.00;0.00;;;;;;;;;;5037307;28;20207;-82
2023/01/08 05:18:33;;;;;;;0.00;0.00;;;;;;;;;;5036629;28;20277;-83
2023/01/08 05:21:02;;;;;;;0.00;0.00;;;;;;;;;;5036175;28;20199;-82
2023/01/08 05:23:31;;;;;;;0.00;0.00;;;;;;;;;;5036642;28;20218;-83
2023/01/08 05:26:00;;;;;;;0.00;0.00;;;;;;;;;;5031593;28;20229;-82
2023/01/08 05:28:30;;;;;;;0.00;0.00;;;;;;;;;;5024067;28;20220;-82
2023/01/08 05:30:59;;;;;;;0.00;0.00;;;;;;;;;;5036693;28;20200;-82
2023/01/08 05:33:28;;;;;;;0.00;0.00;;;;;;;;;;5036749;28;20215;-83
2023/01/08 05:35:57;;;;;;;0.00;0.00;;;;;;;;;;5037072;28;20203;-82
2023/01/08 05:38:25;;;;;;;0.00;0.00;;;;;;;;;;5036737;28;20227;-83
2023/01/08 05:40:54;;;;;;;0.00;0.00;;;;;;;;;;5036365;28;20290;-83
2023/01/08 05:43:22;;;;;;;0.00;0.00;;;;;;;;;;5036304;28;20676;-82
2023/01/08 05:45:52;;;;;;;0.00;0.00;;;;;;;;;;5036022;28;20278;-83
2023/01/08 05:48:21;;;;;;;0.00;0.00;;;;;;;;;;5036782;28;20227;-82
2023/01/08 05:50:50;;;;;;;0.00;0.00;;;;;;;;;;5035748;28;20207;-82
2023/01/08 05:53:18;;;;;;;0.00;0.00;;;;;;;;;;5035942;28;20203;-82
2023/01/08 05:55:47;;;;;;;0.00;0.00;;;;;;;;;;5036270;28;20586;-82
2023/01/08 05:58:17;;;;;;;0.00;0.00;;;;;;;;;;5036038;28;20692;-82
2023/01/08 06:00:46;;;;;;;0.00;0.00;;;;;;;;;;5035538;28;20195;-82
2023/01/08 06:03:16;;;;;;;0.00;0.00;;;;;;;;;;5035347;28;20333;-82
2023/01/08 06:05:45;;;;;;;0.00;0.00;;;;;;;;;;5035865;28;20278;-82
2023/01/08 06:08:13;;;;;;;0.00;0.00;;;;;;;;;;5035687;28;20236;-83
2023/01/08 06:10:42;;;;;;;0.00;0.00;;;;;;;;;;5035700;28;20211;-83
2023/01/08 06:13:11;;;;;;;0.00;0.00;;;;;;;;;;5035969;28;20208;-83
2023/01/08 06:15:39;;;;;;;0.00;0.00;;;;;;;;;;5036733;28;20262;-83
2023/01/08 06:18:08;;;;;;;0.00;0.00;;;;;;;;;;5036331;28;20230;-83
2023/01/08 06:20:38;;;;;;;0.00;0.00;;;;;;;;;;5037094;28;20217;-83
2023/01/08 06:23:07;;;;;;;0.00;0.00;;;;;;;;;;5036365;28;20287;-82
2023/01/08 06:25:36;;;;;;;0.00;0.00;;;;;;;;;;5035995;28;20291;-83
2023/01/08 06:28:05;;;;;;;0.00;0.00;;;;;;;;;;5036528;28;20223;-83
2023/01/08 06:30:33;;;;;;;0.00;0.00;;;;;;;;;;5034942;28;20204;-82
2023/01/08 06:33:02;;;;;;;0.00;0.00;;;;;;;;;;5037790;28;20274;-82
2023/01/08 06:35:31;;;;;;;0.00;0.00;;;;;;;;;;5039127;28;20218;-82
2023/01/08 06:38:01;;;;;;;0.00;0.00;;;;;;;;;;5038771;28;20227;-82
2023/01/08 06:40:30;;;;;;;0.00;0.00;;;;;;;;;;5038573;28;20216;-82
2023/01/08 06:43:02;;;;;;;0.00;0.00;;;;;;;;;;5037834;28;20211;-82
2023/01/08 06:45:30;;;;;;;0.00;0.00;;;;;;;;;;5037627;28;20217;-82
2023/01/08 06:48:00;;;;;;;0.00;0.00;;;;;;;;;;5038007;28;20254;-82
2023/01/08 06:50:29;;;;;;;0.00;0.00;;;;;;;;;;5037352;28;20192;-82
2023/01/08 06:52:58;;;;;;;0.00;0.00;;;;;;;;;;5037275;28;20665;-82
2023/01/08 06:55:28;;;;;;;0.00;0.00;;;;;;;;;;5037307;28;20546;-80
2023/01/08 06:57:57;;;;;;;0.00;0.00;;;;;;;;;;5036663;28;20220;-80
2023/01/08 07:00:26;;;;;;;0.00;0.00;;;;;;;;;;5037218;28;20207;-81
2023/01/08 07:02:55;;;;;;;0.00;0.00;;;;;;;;;;5036732;28;20262;-80
2023/01/08 07:05:24;;;;;;;0.00;0.00;;;;;;;;;;5036749;28;20204;-80
2023/01/08 07:07:52;;;;;;;0.00;0.00;;;;;;;;;;5036934;28;20234;-79
2023/01/08 07:10:20;;;;;;;0.00;0.00;;;;;;;;;;5036768;28;20261;-80
2023/01/08 07:12:50;;;;;;;0.00;0.00;;;;;;;;;;5036493;28;20204;-79
2023/01/08 07:15:19;;;;;;;0.00;0.00;;;;;;;;;;5036744;28;20669;-79
2023/01/08 07:17:47;;;;;;;0.00;0.00;;;;;;;;;;5036278;28;20270;-79
2023/01/08 07:20:16;;;;;;;0.00;0.00;;;;;;;;;;5036727;28;20607;-79
2023/01/08 07:22:44;;;;;;;0.00;0.00;;;;;;;;;;5036488;28;20664;-79
2023/01/08 07:25:12;;;;;;;0.00;0.00;;;;;;;;;;5036590;28;20696;-79
2023/01/08 07:27:41;;;;;;;0.00;0.00;;;;;;;;;;5035792;28;20262;-79
2023/01/08 07:30:11;;;;;;;0.00;0.00;;;;;;;;;;5036497;28;20614;-79
2023/01/08 07:32:59;;;;;;;0.00;0.00;;;;;;;;;;5036345;28;20204;-79
2023/01/08 07:35:27;;;;;;;0.00;0.00;;;;;;;;;;5035998;28;20199;-79
2023/01/08 07:37:56;;;;;;;0.00;0.00;;;;;;;;;;5036132;28;20274;-80
2023/01/08 07:40:24;;;;;;;0.00;0.00;;;;;;;;;;5036006;28;20208;-80
2023/01/08 07:43:02;;;;;;;0.00;0.00;;;;;;;;;;5035527;28;20631;-79
2023/01/08 07:45:32;;;;;;;0.00;0.00;;;;;;;;;;5035900;28;20188;-79
2023/01/08 07:48:01;;;;;;;0.00;0.00;;;;;;;;;;5035604;28;20260;-79
2023/01/08 07:50:29;;;;;;;0.00;0.00;;;;;;;;;;5035809;28;20246;-79
2023/01/08 07:52:59;;;;;;;0.00;0.00;;;;;;;;;;5035868;28;20250;-80
2023/01/08 07:55:27;;;;;;;0.00;0.00;;;;;;;;;;5035680;28;20257;-79
2023/01/08 07:57:56;;;;;;;0.00;0.00;;;;;;;;;;5035879;28;20270;-79
2023/01/08 08:00:24;;;;;;;0.00;0.00;;;;;;;;;;5035792;28;20257;-79
2023/01/08 08:02:54;;;;;;;0.00;0.00;;;;;;;;;;5035602;28;20203;-79
2023/01/08 08:05:22;;;;;;;0.00;0.00;;;;;;;;;;5035334;28;20204;-79
2023/01/08 08:07:51;;;;;;;0.00;0.00;;;;;;;;;;5035517;28;20235;-79
2023/01/08 08:10:19;;;;;;;0.00;0.00;;;;;;;;;;5035838;28;20238;-79
2023/01/08 08:12:47;;;;;;;0.00;0.00;;;;;;;;;;5035651;28;20208;-80
2023/01/08 08:15:16;;;;;;;0.00;0.00;;;;;;;;;;5035194;28;20265;-79
2023/01/08 08:17:45;;;;;;;0.00;0.00;;;;;;;;;;5035367;28;20762;-79
2023/01/08 08:20:15;;;;;;;0.00;0.00;;;;;;;;;;5035111;28;20208;-79
2023/01/08 08:22:44;;;;;;;0.00;0.00;;;;;;;;;;5035118;28;20282;-79
2023/01/08 08:25:14;;;;;;;0.00;0.00;;;;;;;;;;5035383;28;20277;-79
2023/01/08 08:27:42;;;;;;;0.00;0.00;;;;;;;;;;5035585;28;20215;-80
2023/01/08 08:30:12;;;;;;;0.00;0.00;;;;;;;;;;5035438;28;20657;-80
2023/01/08 08:32:40;;;;;;;0.00;0.00;;;;;;;;;;5035015;28;20253;-80
2023/01/08 08:35:09;;;;;;;0.00;0.00;;;;;;;;;;5034833;28;20287;-80
2023/01/08 08:37:39;;;;;;;0.00;0.00;;;;;;;;;;5034556;28;20227;-79
2023/01/08 08:40:08;;;;;;;0.00;0.00;;;;;;;;;;5034862;28;20216;-80
2023/01/08 08:42:37;;;;;;;0.00;0.00;;;;;;;;;;5035015;28;20274;-80
2023/01/08 08:45:07;;;;;;;0.00;0.00;;;;;;;;;;5034542;28;20207;-79
2023/01/08 08:47:35;;;;;;;0.00;0.00;;;;;;;;;;5034459;28;20227;-80
2023/01/08 08:50:04;;;;;;;0.00;0.00;;;;;;;;;;5034915;28;20203;-80
2023/01/08 08:52:32;;;;;;;0.00;0.00;;;;;;;;;;5034755;28;20623;-80
2023/01/08 08:55:02;;;;;;;0.00;0.00;;;;;;;;;;5033734;28;20566;-79
2023/01/08 08:57:30;;;;;;;0.00;0.00;;;;;;;;;;5034761;28;20270;-80
2023/01/08 08:59:59;;;;;;;0.00;0.00;;;;;;;;;;5034692;28;20239;-79
2023/01/08 09:02:28;;;;;;;0.00;0.00;;;;;;;;;;5034949;28;20290;-80
2023/01/08 09:04:57;;;;;;;0.00;0.00;;;;;;;;;;5034353;28;20227;-80
2023/01/08 09:07:25;;;;;;;0.00;0.00;;;;;;;;;;5034353;28;20677;-80
2023/01/08 09:09:54;;;;;;;0.00;0.00;;;;;;;;;;5034176;28;20242;-80
2023/01/08 09:12:23;;;;;;;0.00;0.00;;;;;;;;;;5034876;28;20673;-80
2023/01/08 09:14:53;;;;;;;0.00;0.00;;;;;;;;;;5034723;28;20207;-80
2023/01/08 09:17:22;;;;;;;0.00;0.00;;;;;;;;;;5034392;28;20310;-80
2023/01/08 09:19:50;;;;;;;0.00;0.00;;;;;;;;;;5034795;28;20203;-77
2023/01/08 09:22:18;;;;;;;0.00;0.00;;;;;;;;;;5033598;28;20246;-77
2023/01/08 09:24:47;;;;;;;0.00;0.00;;;;;;;;;;5032768;28;20249;-77
2023/01/08 09:27:15;;;;;;;0.00;0.00;;;;;;;;;;5033723;28;20259;-77
2023/01/08 09:29:45;;;;;;;0.00;0.00;;;;;;;;;;5034265;28;20310;-77
2023/01/08 09:32:13;;;;;;;0.00;0.00;;;;;;;;;;5033859;28;20200;-77
2023/01/08 09:34:42;;;;;;;0.00;0.00;;;;;;;;;;5034002;28;20204;-77
2023/01/08 09:37:10;;;;;;;0.00;0.00;;;;;;;;;;5034299;28;20219;-77
2023/01/08 09:39:40;;;;;;;0.00;0.00;;;;;;;;;;5028301;28;20212;-77
2023/01/08 09:42:12;;;;;;;0.00;0.00;;;;;;;;;;5033466;28;20253;-77
2023/01/08 09:44:42;;;;;;;0.00;0.00;;;;;;;;;;5030821;28;20553;-77
2023/01/08 09:47:17;;;;;;;0.00;0.00;;;;;;;;;;5018969;28;20222;-76
2023/01/08 09:49:47;;;;;;;0.00;0.00;;;;;;;;;;5023275;28;20675;-77
2023/01/08 09:52:16;;;;;;;0.00;0.00;;;;;;;;;;5033986;28;20203;-76
2023/01/08 09:54:44;;;;;;;0.00;0.00;;;;;;;;;;5013375;28;20212;-77
2023/01/08 09:57:14;;;;;;;0.00;0.00;;;;;;;;;;5033639;28;20220;-77
2023/01/08 09:59:42;;;;;;;0.00;0.00;;;;;;;;;;5033741;28;20204;-77
2023/01/08 10:02:14;;;;;;;0.00;0.00;;;;;;;;;;5030800;28;20574;-77
2023/01/08 10:04:44;;;;;;;0.00;0.00;;;;;;;;;;5013754;28;20188;-77
2023/01/08 10:07:17;;;;;;;0.00;0.00;;;;;;;;;;5013537;28;20228;-76
2023/01/08 10:09:46;;;;;;;0.00;0.00;;;;;;;;;;5022622;28;20248;-77
2023/01/08 10:12:14;;;;;;;0.00;0.00;;;;;;;;;;5033649;28;20264;-77
2023/01/08 10:14:48;;;;;;;0.00;0.00;;;;;;;;;;5033076;28;20216;-77
2023/01/08 10:17:21;;;;;;;0.00;0.00;;;;;;;;;;5033377;28;20236;-76
2023/01/08 10:19:51;;;;;;;0.00;0.00;;;;;;;;;;5033240;28;20250;-77
2023/01/08 10:22:21;;;;;;;0.00;0.00;;;;;;;;;;5033046;28;20243;-77
2023/01/08 10:24:49;;;;;;;0.00;0.00;;;;;;;;;;5033135;28;20203;-76
2023/01/08 10:27:19;;;;;;;0.00;0.00;;;;;;;;;;5033269;28;20327;-77
2023/01/08 10:29:47;;;;;;;0.00;0.00;;;;;;;;;;5032737;28;20314;-78
2023/01/08 10:32:17;;;;;;;0.00;0.00;;;;;;;;;;5025692;28;20203;-77
2023/01/08 10:34:47;;;;;;;0.00;0.00;;;;;;;;;;5032942;28;20204;-76
2023/01/08 10:37:24;;;;;;;0.00;0.00;;;;;;;;;;5033091;28;20219;-76
2023/01/08 10:39:53;;;;;;;0.00;0.00;;;;;;;;;;5031628;28;20191;-77
2023/01/08 10:42:22;;;;;;;0.00;0.00;;;;;;;;;;5033057;28;20227;-77
2023/01/08 10:44:56;;;;;;;0.00;0.00;;;;;;;;;;5033166;28;20208;-77
2023/01/08 10:47:25;;;;;;;0.00;0.00;;;;;;;;;;5033044;28;20258;-77
2023/01/08 10:49:54;;;;;;;0.00;0.00;;;;;;;;;;5033083;28;20677;-77
2023/01/08 10:52:30;;;;;;;0.00;0.00;;;;;;;;;;5033377;28;20255;-77
2023/01/08 10:54:58;;;;;;;0.00;0.00;;;;;;;;;;5033287;28;20556;-77
2023/01/08 10:57:28;;;;;;;0.00;0.00;;;;;;;;;;5033167;28;20762;-77
2023/01/08 10:59:57;;;;;;;0.00;0.00;;;;;;;;;;5032786;28;20200;-77
2023/01/08 11:02:31;;;;;;;0.00;0.00;;;;;;;;;;5032734;28;20250;-77
2023/01/08 11:04:59;;;;;;;0.00;0.00;;;;;;;;;;5033805;28;20537;-77
2023/01/08 11:07:29;;;;;;;0.00;0.00;;;;;;;;;;5033456;28;20681;-77
2023/01/08 11:09:58;;;;;;;0.00;0.00;;;;;;;;;;5032357;28;20216;-77
2023/01/08 11:12:34;;;;;;;0.00;0.00;;;;;;;;;;5033234;28;20203;-77
2023/01/08 11:15:03;;;;;;;0.00;0.00;;;;;;;;;;5032847;28;20290;-77
2023/01/08 11:17:33;;;;;;;0.00;0.00;;;;;;;;;;5033027;28;20251;-77
2023/01/08 11:20:08;;;;;;;0.00;0.00;;;;;;;;;;5031297;28;20250;-77
2023/01/08 11:22:38;;;;;;;0.00;0.00;;;;;;;;;;5035955;28;20203;-77
2023/01/08 11:25:12;;;;;;;0.00;0.00;;;;;;;;;;5036097;28;20204;-76
2023/01/08 11:27:43;;;;;;;0.00;0.00;;;;;;;;;;5035602;28;20219;-76
2023/01/08 11:30:13;;;;;;;0.00;0.00;;;;;;;;;;5033777;28;20220;-78
2023/01/08 11:32:44;;;;;;;0.00;0.00;;;;;;;;;;5035877;28;20204;-77
2023/01/08 11:35:14;;;;;;;0.00;0.00;;;;;;;;;;5036667;28;20649;-77
2023/01/08 11:37:46;;;;;;;0.00;0.00;;;;;;;;;;5036126;28;20258;-78
2023/01/08 11:40:15;;;;;;;0.00;0.00;;;;;;;;;;5052011;28;20615;-77
2023/01/08 11:42:50;;;;;;;0.00;0.00;;;;;;;;;;5044787;28;20254;-77
2023/01/08 11:45:26;;;;;;;0.00;0.00;;;;;;;;;;5035643;28;20261;-76
2023/01/08 11:48:09;;;;;;;0.00;0.00;;;;;;;;;;5035353;28;20227;-78
2023/01/08 11:50:41;;;;;;;0.00;0.00;;;;;;;;;;5015900;28;20258;-77
2023/01/08 11:53:15;;;;;;;0.00;0.00;;;;;;;;;;5027747;28;20564;-77
2023/01/08 11:55:47;;;;;;;0.00;0.00;;;;;;;;;;5035631;28;20235;-76
2023/01/08 11:58:23;;;;;;;0.00;0.00;;;;;;;;;;5015599;28;20629;-77
2023/01/08 12:00:57;;;;;;;0.00;0.00;;;;;;;;;;5016135;28;20188;-77
2023/01/08 12:03:29;;;;;;;0.00;0.00;;;;;;;;;;5041590;28;20214;-77
2023/01/08 12:06:05;;;;;;;0.00;0.00;;;;;;;;;;5054478;28;20194;-77
2023/01/08 12:08:39;;;;;;;0.00;0.00;;;;;;;;;;5053611;28;20226;-77
2023/01/08 12:11:11;;;;;;;0.00;0.00;;;;;;;;;;5042215;28;20258;-77
2023/01/08 12:13:52;;;;;;;0.00;0.00;;;;;;;;;;5033743;28;20243;-77
2023/01/08 12:16:29;;;;;;;0.00;0.00;;;;;;;;;;5035333;28;20231;-77
2023/01/08 12:19:04;;;;;;;0.00;0.00;;;;;;;;;;5035359;28;20734;-76
2023/01/08 12:21:33;;;;;;;0.00;0.00;;;;;;;;;;5035401;28;20242;-76
2023/01/08 12:24:12;;;;;;;0.00;0.00;;;;;;;;;;5034632;28;20228;-76
2023/01/08 12:26:45;;;;;;;0.00;0.00;;;;;;;;;;5035577;28;21246;-76
2023/01/08 12:29:20;;;;;;;0.00;0.00;;;;;;;;;;5034755;28;20247;-76
2023/01/08 12:32:09;;;;;;;0.00;0.00;;;;;;;;;;5035100;28;20699;-77
2023/01/08 12:34:42;;;;;;;0.00;0.00;;;;;;;;;;5015304;28;20244;-76
2023/01/08 12:37:15;;;;;;;0.00;0.00;;;;;;;;;;5019887;28;20629;-77
2023/01/08 12:39:48;;;;;;;0.00;0.00;;;;;;;;;;5034948;28;20200;-77
2023/01/08 12:42:23;;;;;;;0.00;0.00;;;;;;;;;;5035054;28;20200;-77
2023/01/08 12:44:53;;;;;;;0.00;0.00;;;;;;;;;;5034443;28;20230;-77
2023/01/08 12:47:24;;;;;;;0.00;0.00;;;;;;;;;;5034854;28;20239;-77
2023/01/08 12:49:57;;;;;;;0.00;0.00;;;;;;;;;;5034491;28;20211;-77
2023/01/08 12:52:29;;;;;;;0.00;0.00;;;;;;;;;;5035017;28;20216;-77
2023/01/08 12:55:01;;;;;;;0.00;0.00;;;;;;;;;;5019259;28;20201;-77
2023/01/08 12:57:31;;;;;;;0.00;0.00;;;;;;;;;;5015090;28;20251;-77
2023/01/08 13:00:03;;;;;;;0.00;0.00;;;;;;;;;;5014738;28;20197;-77
2023/01/08 13:02:36;;;;;;;0.00;0.00;;;;;;;;;;5020590;28;20251;-77
2023/01/08 13:05:12;;;;;;;0.00;0.00;;;;;;;;;;5033390;28;20200;-77
2023/01/08 13:07:44;;;;;;;0.00;0.00;;;;;;;;;;5030462;28;20215;-77
2023/01/08 13:10:24;;;;;;;0.00;0.00;;;;;;;;;;5033959;28;20212;-76
2023/01/08 13:12:54;;;;;;;0.00;0.00;;;;;;;;;;5034979;28;20203;-77
2023/01/08 13:15:24;;;;;;;0.00;0.00;;;;;;;;;;5034202;28;20204;-77
2023/01/08 13:17:54;;;;;;;0.00;0.00;;;;;;;;;;5034104;28;20258;-77
2023/01/08 13:20:24;;;;;;;0.00;0.00;;;;;;;;;;5017981;28;20204;-77
2023/01/08 13:22:53;;;;;;;0.00;0.00;;;;;;;;;;5028550;28;20231;-76
2023/01/08 13:25:34;;;;;;;0.00;0.00;;;;;;;;;;5033928;28;20208;-77
2023/01/08 13:28:03;;;;;;;0.00;0.00;;;;;;;;;;5034154;28;20286;-76
2023/01/08 13:30:41;;;;;;;0.00;0.00;;;;;;;;;;5034738;28;20224;-77
2023/01/08 13:33:36;;;;;;;0.00;0.00;;;;;;;;;;5036778;28;20208;-79
2023/01/08 13:36:14;;;;;;;0.00;0.00;;;;;;;;;;5035643;28;20184;-77
2023/01/08 13:38:43;;;;;;;0.00;0.00;;;;;;;;;;5035551;28;20258;-77
2023/01/08 13:41:29;;;;;;;0.00;0.00;;;;;;;;;;5033960;28;20196;-77
2023/01/08 13:44:00;;;;;;;0.00;0.00;;;;;;;;;;5034808;28;20261;-77
2023/01/08 13:46:29;;;;;;;0.00;0.00;;;;;;;;;;5035343;28;20195;-77
2023/01/08 13:49:00;;;;;;;0.00;0.00;;;;;;;;;;5032158;28;20563;-77
2023/01/08 13:51:33;;;;;;;0.00;0.00;;;;;;;;;;5035358;28;20216;-77
2023/01/08 13:54:06;;;;;;;0.00;0.00;;;;;;;;;;5035427;28;20603;-77
2023/01/08 13:56:36;;;;;;;0.00;0.00;;;;;;;;;;4694509;28;9999767;-77
2023/01/08 13:59:05;;;;;;;0.00;0.00;;;;;;;;;;5044572;28;20215;-77
2023/01/08 14:01:33;;;;;;;0.00;0.00;;;;;;;;;;5013942;28;20271;-77
2023/01/08 14:04:02;;;;;;;0.00;0.00;;;;;;;;;;5016303;28;20250;-77
2023/01/08 14:06:33;;;;;;;0.00;0.00;;;;;;;;;;5033388;28;20246;-77
2023/01/08 14:09:03;;;;;;;0.00;0.00;;;;;;;;;;5033603;28;20241;-77
2023/01/08 14:11:36;;;;;;;0.00;0.00;;;;;;;;;;5034015;28;20266;-77
2023/01/08 14:14:06;;;;;;;0.00;0.00;;;;;;;;;;5032589;28;20238;-78
2023/01/08 14:16:37;;;;;;;0.00;0.00;;;;;;;;;;5028641;28;20239;-78
2023/01/08 14:19:06;;;;;;;0.00;0.00;;;;;;;;;;5033307;28;20223;-77
2023/01/08 14:21:34;;;;;;;0.00;0.00;;;;;;;;;;5031350;28;20223;-79
2023/01/08 14:24:07;;;;;;;0.00;0.00;;;;;;;;;;5033824;28;20330;-77
2023/01/08 14:26:37;;;;;;;0.00;0.00;;;;;;;;;;5015539;28;20228;-77
2023/01/08 14:29:14;;;;;;;0.00;0.00;;;;;;;;;;5035692;28;20210;-77
2023/01/08 14:31:46;;;;;;;0.00;0.00;;;;;;;;;;5033785;28;20203;-79
2023/01/08 14:34:15;;;;;;;0.00;0.00;;;;;;;;;;5038053;28;20235;-77
2023/01/08 14:36:44;;;;;;;0.00;0.00;;;;;;;;;;5044246;28;20701;-77
2023/01/08 14:39:12;;;;;;;0.00;0.00;;;;;;;;;;5035053;28;20661;-78
2023/01/08 14:44:29;;;;;;;0.00;0.00;;;;;;;;;;5035549;28;20578;-77
2023/01/08 14:47:17;;;;;;;0.00;0.00;;;;;;;;;;5035609;28;20243;-77
2023/01/08 14:49:50;;;;;;;0.00;0.00;;;;;;;;;;5046725;28;20211;-77
2023/01/08 14:52:20;;;;;;;0.00;0.00;;;;;;;;;;5033798;28;20204;-77
2023/01/08 14:54:50;;;;;;;0.00;0.00;;;;;;;;;;5036536;28;20211;-77
2023/01/08 14:57:20;;;;;;;0.00;0.00;;;;;;;;;;5036735;28;20257;-77
2023/01/08 14:59:54;;;;;;;0.00;0.00;;;;;;;;;;5037531;28;20192;-77
2023/01/08 15:02:26;;;;;;;0.00;0.00;;;;;;;;;;5032755;28;20206;-77
2023/01/08 15:05:01;;;;;;;0.00;0.00;;;;;;;;;;5035243;28;20200;-78